sensor_id;sensor_type;location;lat;lon;timestamp;pressure;altitude;pressure_sealevel;temperature;humidity
57248;BME280;55809;46.618;10.764;2023-04-02T00:04:11;92075.81;;;8.51;47.63
57248;BME280;55809;46.618;10.764;2023-04-02T00:06:42;92043.75;;;8.33;47.15
57248;BME280;55809;46.618;10.764;2023-04-02T00:09:29;92068.84;;;8.53;47.26
57248;BME280;55809;46.618;10.764;2023-04-02T00:12:12;92065.03;;;8.51;47.71
57248;BME280;55809;46.618;10.764;2023-04-02T00:14:48;92080.06;;;8.48;47.41
57248;BME280;55809;46.618;10.764;2023-04-02T00:17:19;92066.28;;;8.46;47.60
57248;BME280;55809;46.618;10.764;2023-04-02T00:19:57;92065.16;;;8.43;47.77
57248;BME280;55809;46.618;10.764;2023-04-02T00:22:30;92046.13;;;8.27;47.34
57248;BME280;55809;46.618;10.764;2023-04-02T00:25:07;92063.66;;;8.39;47.57
57248;BME280;55809;46.618;10.764;2023-04-02T00:27:39;92068.53;;;8.48;46.71
57248;BME280;55809;46.618;10.764;2023-04-02T00:30:12;92049.13;;;8.33;46.96
57248;BME280;55809;46.618;10.764;2023-04-02T00:32:41;92076.91;;;8.53;46.27
57248;BME280;55809;46.618;10.764;2023-04-02T00:35:11;92073.06;;;8.54;46.75
57248;BME280;55809;46.618;10.764;2023-04-02T00:37:41;92081.53;;;8.53;46.60
57248;BME280;55809;46.618;10.764;2023-04-02T00:40:19;92081.53;;;8.53;47.05
57248;BME280;55809;46.618;10.764;2023-04-02T00:42:49;92084.28;;;8.49;47.12
57248;BME280;55809;46.618;10.764;2023-04-02T00:45:23;92046.25;;;8.20;47.87
57248;BME280;55809;46.618;10.764;2023-04-02T00:47:56;92085.09;;;8.46;47.51
57248;BME280;55809;46.618;10.764;2023-04-02T00:50:30;92065.34;;;8.26;47.98
57248;BME280;55809;46.618;10.764;2023-04-02T00:53:10;92085.25;;;8.32;48.80
57248;BME280;55809;46.618;10.764;2023-04-02T00:55:40;92089.41;;;8.36;48.78
57248;BME280;55809;46.618;10.764;2023-04-02T00:58:18;92091.47;;;8.25;49.28
57248;BME280;55809;46.618;10.764;2023-04-02T01:00:50;92086.19;;;8.18;49.42
57248;BME280;55809;46.618;10.764;2023-04-02T01:03:33;92079.28;;;8.17;49.15
57248;BME280;55809;46.618;10.764;2023-04-02T01:06:05;92090.47;;;8.12;48.85
57248;BME280;55809;46.618;10.764;2023-04-02T01:08:59;92089.69;;;8.15;49.19
57248;BME280;55809;46.618;10.764;2023-04-02T01:11:43;92091.97;;;8.16;49.22
57248;BME280;55809;46.618;10.764;2023-04-02T01:14:36;92084.34;;;8.11;49.62
57248;BME280;55809;46.618;10.764;2023-04-02T01:17:19;92087.09;;;8.08;49.21
57248;BME280;55809;46.618;10.764;2023-04-02T01:20:36;92083.97;;;8.09;48.84
57248;BME280;55809;46.618;10.764;2023-04-02T01:23:20;92084.03;;;8.06;49.24
57248;BME280;55809;46.618;10.764;2023-04-02T01:25:59;92037.63;;;7.71;48.60
57248;BME280;55809;46.618;10.764;2023-04-02T01:28:52;92087.84;;;8.08;49.19
57248;BME280;55809;46.618;10.764;2023-04-02T01:31:24;92096.22;;;8.14;48.37
57248;BME280;55809;46.618;10.764;2023-04-02T01:33:54;92058.59;;;7.83;48.28
57248;BME280;55809;46.618;10.764;2023-04-02T01:36:25;92088.66;;;8.05;48.02
57248;BME280;55809;46.618;10.764;2023-04-02T01:39:02;92091.34;;;8.05;48.86
57248;BME280;55809;46.618;10.764;2023-04-02T01:41:35;92070.44;;;7.86;48.77
57248;BME280;55809;46.618;10.764;2023-04-02T01:44:16;92093.63;;;8.07;48.54
57248;BME280;55809;46.618;10.764;2023-04-02T01:46:51;92088.66;;;8.05;49.16
57248;BME280;55809;46.618;10.764;2023-04-02T01:49:20;92071.53;;;7.92;49.07
57248;BME280;55809;46.618;10.764;2023-04-02T01:51:51;92102.13;;;8.02;49.28
57248;BME280;55809;46.618;10.764;2023-04-02T01:54:21;92088.34;;;7.99;49.46
57248;BME280;55809;46.618;10.764;2023-04-02T01:56:55;92093.41;;;7.94;49.87
57248;BME280;55809;46.618;10.764;2023-04-02T01:59:25;92098.34;;;7.95;49.81
57248;BME280;55809;46.618;10.764;2023-04-02T02:02:00;92092.22;;;7.95;49.58
57248;BME280;55809;46.618;10.764;2023-04-02T02:04:29;92100.66;;;7.97;49.36
57248;BME280;55809;46.618;10.764;2023-04-02T02:07:00;92096.13;;;7.90;49.11
57248;BME280;55809;46.618;10.764;2023-04-02T02:09:31;92100.75;;;7.86;49.63
57248;BME280;55809;46.618;10.764;2023-04-02T02:12:02;92104.63;;;7.85;49.90
57248;BME280;55809;46.618;10.764;2023-04-02T02:14:33;92066.09;;;7.65;49.82
57248;BME280;55809;46.618;10.764;2023-04-02T02:17:01;92105.41;;;7.82;49.76
57248;BME280;55809;46.618;10.764;2023-04-02T02:19:33;92103.84;;;7.85;49.87
57248;BME280;55809;46.618;10.764;2023-04-02T02:22:09;92116.91;;;7.83;50.06
57248;BME280;55809;46.618;10.764;2023-04-02T02:24:40;92060.47;;;7.52;49.79
57248;BME280;55809;46.618;10.764;2023-04-02T02:27:36;92107.72;;;7.84;49.75
57248;BME280;55809;46.618;10.764;2023-04-02T02:30:16;92119.97;;;7.85;50.28
57248;BME280;55809;46.618;10.764;2023-04-02T02:32:55;92117.28;;;7.85;50.27
57248;BME280;55809;46.618;10.764;2023-04-02T02:35:28;92123.06;;;7.83;50.28
57248;BME280;55809;46.618;10.764;2023-04-02T02:38:09;92112.31;;;7.83;49.82
57248;BME280;55809;46.618;10.764;2023-04-02T02:40:44;92095.19;;;7.70;49.90
57248;BME280;55809;46.618;10.764;2023-04-02T02:43:16;92096.22;;;7.80;49.37
57248;BME280;55809;46.618;10.764;2023-04-02T02:45:50;92121.16;;;7.84;49.63
57248;BME280;55809;46.618;10.764;2023-04-02T02:48:29;92123.84;;;7.84;50.05
57248;BME280;55809;46.618;10.764;2023-04-02T02:51:01;92126.53;;;7.84;49.96
57248;BME280;55809;46.618;10.764;2023-04-02T02:53:45;92129.59;;;7.82;50.30
57248;BME280;55809;46.618;10.764;2023-04-02T02:56:18;92126.59;;;7.77;50.81
57248;BME280;55809;46.618;10.764;2023-04-02T02:58:51;92129.28;;;7.77;50.54
57248;BME280;55809;46.618;10.764;2023-04-02T03:01:22;92130.47;;;7.72;51.18
57248;BME280;55809;46.618;10.764;2023-04-02T03:03:52;92123.97;;;7.69;51.55
57248;BME280;55809;46.618;10.764;2023-04-02T03:06:23;92139.28;;;7.72;51.35
57248;BME280;55809;46.618;10.764;2023-04-02T03:09:02;92127.13;;;7.61;51.83
57248;BME280;55809;46.618;10.764;2023-04-02T03:11:35;92129.00;;;7.67;51.82
57248;BME280;55809;46.618;10.764;2023-04-02T03:14:15;92135.13;;;7.68;51.66
57248;BME280;55809;46.618;10.764;2023-04-02T03:16:56;92130.13;;;7.66;51.69
57248;BME280;55809;46.618;10.764;2023-04-02T03:19:32;92144.69;;;7.69;51.66
57248;BME280;55809;46.618;10.764;2023-04-02T03:22:06;92086.00;;;7.29;51.12
57248;BME280;55809;46.618;10.764;2023-04-02T03:24:46;92137.84;;;7.64;51.58
57248;BME280;55809;46.618;10.764;2023-04-02T03:27:21;92146.66;;;7.65;51.71
57248;BME280;55809;46.618;10.764;2023-04-02T03:30:03;92151.31;;;7.61;52.09
57248;BME280;55809;46.618;10.764;2023-04-02T03:32:36;92150.97;;;7.55;52.47
57248;BME280;55809;46.618;10.764;2023-04-02T03:35:17;92152.13;;;7.54;52.45
57248;BME280;55809;46.618;10.764;2023-04-02T03:37:54;92161.34;;;7.53;52.23
57248;BME280;55809;46.618;10.764;2023-04-02T03:40:28;92164.84;;;7.46;51.99
57248;BME280;55809;46.618;10.764;2023-04-02T03:43:01;92165.31;;;7.38;51.95
57248;BME280;55809;46.618;10.764;2023-04-02T03:45:36;92169.13;;;7.37;52.57
57248;BME280;55809;46.618;10.764;2023-04-02T03:48:13;92172.25;;;7.32;52.57
57248;BME280;55809;46.618;10.764;2023-04-02T03:50:46;92155.09;;;7.22;51.73
57248;BME280;55809;46.618;10.764;2023-04-02T03:53:22;92171.50;;;7.31;51.61
57248;BME280;55809;46.618;10.764;2023-04-02T03:55:52;92171.50;;;7.31;51.65
57248;BME280;55809;46.618;10.764;2023-04-02T03:58:26;92174.94;;;7.32;51.02
57248;BME280;55809;46.618;10.764;2023-04-02T04:01:00;92177.25;;;7.29;51.28
57248;BME280;55809;46.618;10.764;2023-04-02T04:03:43;92179.16;;;7.33;51.68
57248;BME280;55809;46.618;10.764;2023-04-02T04:06:17;92185.69;;;7.32;51.27
57248;BME280;55809;46.618;10.764;2023-04-02T04:08:50;92178.41;;;7.28;51.33
57248;BME280;55809;46.618;10.764;2023-04-02T04:11:24;92167.03;;;7.14;51.38
57248;BME280;55809;46.618;10.764;2023-04-02T04:13:57;92198.31;;;7.35;51.04
57248;BME280;55809;46.618;10.764;2023-04-02T04:16:30;92201.75;;;7.35;50.69
57248;BME280;55809;46.618;10.764;2023-04-02T04:19:03;92199.84;;;7.36;50.55
57248;BME280;55809;46.618;10.764;2023-04-02T04:21:33;92171.97;;;7.19;50.95
57248;BME280;55809;46.618;10.764;2023-04-02T04:24:05;92199.47;;;7.37;50.17
57248;BME280;55809;46.618;10.764;2023-04-02T04:26:35;92205.94;;;7.40;50.35
57248;BME280;55809;46.618;10.764;2023-04-02T04:29:14;92211.72;;;7.38;50.42
57248;BME280;55809;46.618;10.764;2023-04-02T04:31:47;92158.69;;;7.01;50.42
57248;BME280;55809;46.618;10.764;2023-04-02T04:34:21;92215.56;;;7.37;50.72
57248;BME280;55809;46.618;10.764;2023-04-02T04:36:52;92219.78;;;7.38;50.79
57248;BME280;55809;46.618;10.764;2023-04-02T04:39:26;92220.94;;;7.37;50.55
57248;BME280;55809;46.618;10.764;2023-04-02T04:42:02;92223.25;;;7.35;50.82
57248;BME280;55809;46.618;10.764;2023-04-02T04:44:38;92230.53;;;7.35;49.61
57248;BME280;55809;46.618;10.764;2023-04-02T04:47:10;92221.75;;;7.31;50.67
57248;BME280;55809;46.618;10.764;2023-04-02T04:49:45;92222.06;;;7.36;50.71
57248;BME280;55809;46.618;10.764;2023-04-02T04:52:18;92233.59;;;7.33;50.04
57248;BME280;55809;46.618;10.764;2023-04-02T04:54:50;92224.75;;;7.36;50.03
57248;BME280;55809;46.618;10.764;2023-04-02T04:57:28;92234.34;;;7.37;49.39
57248;BME280;55809;46.618;10.764;2023-04-02T05:00:02;92234.31;;;7.41;49.58
57248;BME280;55809;46.618;10.764;2023-04-02T05:02:38;92236.63;;;7.39;49.20
57248;BME280;55809;46.618;10.764;2023-04-02T05:05:19;92240.88;;;7.36;50.08
57248;BME280;55809;46.618;10.764;2023-04-02T05:07:52;92238.13;;;7.43;49.55
57248;BME280;55809;46.618;10.764;2023-04-02T05:10:29;92232.03;;;7.39;49.00
57248;BME280;55809;46.618;10.764;2023-04-02T05:13:05;92240.72;;;7.58;48.31
57248;BME280;55809;46.618;10.764;2023-04-02T05:15:41;92251.81;;;7.60;48.17
57248;BME280;55809;46.618;10.764;2023-04-02T05:18:22;92250.63;;;7.64;49.04
57248;BME280;55809;46.618;10.764;2023-04-02T05:20:58;92245.97;;;7.72;48.88
57248;BME280;55809;46.618;10.764;2023-04-02T05:23:33;92242.00;;;7.87;47.66
57248;BME280;55809;46.618;10.764;2023-04-02T05:26:07;92234.00;;;7.80;47.88
57248;BME280;55809;46.618;10.764;2023-04-02T05:28:39;92226.38;;;7.75;47.82
57248;BME280;55809;46.618;10.764;2023-04-02T05:31:13;92230.56;;;7.76;48.16
57248;BME280;55809;46.618;10.764;2023-04-02T05:33:47;92259.16;;;8.01;48.38
57248;BME280;55809;46.618;10.764;2023-04-02T05:36:24;92260.13;;;8.59;47.48
57248;BME280;55809;46.618;10.764;2023-04-02T05:38:56;92239.13;;;8.47;47.69
57248;BME280;55809;46.618;10.764;2023-04-02T05:41:26;92260.63;;;8.50;47.83
57248;BME280;55809;46.618;10.764;2023-04-02T05:44:05;92266.81;;;8.43;48.41
57248;BME280;55809;46.618;10.764;2023-04-02T05:46:35;92263.34;;;8.47;48.41
57248;BME280;55809;46.618;10.764;2023-04-02T05:49:17;92264.53;;;8.42;49.19
57248;BME280;55809;46.618;10.764;2023-04-02T05:51:52;92245.56;;;8.15;49.22
57248;BME280;55809;46.618;10.764;2023-04-02T05:54:25;92270.03;;;8.28;49.71
57248;BME280;55809;46.618;10.764;2023-04-02T05:56:59;92268.84;;;8.29;49.52
57248;BME280;55809;46.618;10.764;2023-04-02T05:59:32;92257.78;;;8.23;49.39
57248;BME280;55809;46.618;10.764;2023-04-02T06:02:10;92279.72;;;8.59;49.22
57248;BME280;55809;46.618;10.764;2023-04-02T06:04:49;92271.19;;;8.64;48.61
57248;BME280;55809;46.618;10.764;2023-04-02T06:07:26;92274.09;;;8.81;48.61
57248;BME280;55809;46.618;10.764;2023-04-02T06:10:02;92259.59;;;8.71;48.06
57248;BME280;55809;46.618;10.764;2023-04-02T06:12:38;92272.56;;;9.10;47.84
57248;BME280;55809;46.618;10.764;2023-04-02T06:15:11;92272.28;;;9.59;47.38
57248;BME280;55809;46.618;10.764;2023-04-02T06:17:44;92270.91;;;10.21;45.64
57248;BME280;55809;46.618;10.764;2023-04-02T06:20:14;92268.44;;;10.74;45.13
57248;BME280;55809;46.618;10.764;2023-04-02T06:22:47;92269.41;;;11.40;42.96
57248;BME280;55809;46.618;10.764;2023-04-02T06:25:20;92230.59;;;11.66;41.76
57248;BME280;55809;46.618;10.764;2023-04-02T06:27:50;92264.66;;;12.29;40.93
57248;BME280;55809;46.618;10.764;2023-04-02T06:30:23;92252.34;;;12.57;39.80
57248;BME280;55809;46.618;10.764;2023-04-02T06:32:52;92256.00;;;12.80;39.17
57248;BME280;55809;46.618;10.764;2023-04-02T06:35:19;92243.16;;;13.09;38.00
57248;BME280;55809;46.618;10.764;2023-04-02T06:37:50;92248.63;;;13.22;36.04
57248;BME280;55809;46.618;10.764;2023-04-02T06:40:33;92250.56;;;13.22;34.17
57248;BME280;55809;46.618;10.764;2023-04-02T06:43:05;92264.50;;;13.36;33.06
57248;BME280;55809;46.618;10.764;2023-04-02T06:45:37;92269.19;;;13.61;33.56
57248;BME280;55809;46.618;10.764;2023-04-02T06:48:14;92270.16;;;13.93;33.23
57248;BME280;55809;46.618;10.764;2023-04-02T06:50:45;92262.25;;;13.99;32.74
57248;BME280;55809;46.618;10.764;2023-04-02T06:53:20;92270.31;;;14.37;31.68
57248;BME280;55809;46.618;10.764;2023-04-02T06:55:51;92273.44;;;14.48;31.08
57248;BME280;55809;46.618;10.764;2023-04-02T06:58:19;92261.16;;;14.44;31.00
57248;BME280;55809;46.618;10.764;2023-04-02T07:00:47;92279.63;;;14.49;31.02
57248;BME280;55809;46.618;10.764;2023-04-02T07:03:21;92279.63;;;14.62;29.71
57248;BME280;55809;46.618;10.764;2023-04-02T07:05:50;92285.19;;;14.80;30.01
57248;BME280;55809;46.618;10.764;2023-04-02T07:08:19;92287.16;;;14.80;29.72
57248;BME280;55809;46.618;10.764;2023-04-02T07:10:46;92291.41;;;15.02;29.34
57248;BME280;55809;46.618;10.764;2023-04-02T07:13:15;92257.16;;;14.83;28.98
57248;BME280;55809;46.618;10.764;2023-04-02T07:15:43;92264.81;;;14.97;29.42
57248;BME280;55809;46.618;10.764;2023-04-02T07:18:21;92281.91;;;15.29;28.59
57248;BME280;55809;46.618;10.764;2023-04-02T07:20:49;92278.59;;;15.56;28.20
57248;BME280;55809;46.618;10.764;2023-04-02T07:23:16;92279.53;;;15.84;27.98
57248;BME280;55809;46.618;10.764;2023-04-02T07:25:44;92283.88;;;15.82;27.77
57248;BME280;55809;46.618;10.764;2023-04-02T07:28:12;92283.38;;;15.96;27.28
57248;BME280;55809;46.618;10.764;2023-04-02T07:30:40;92285.44;;;15.61;27.24
57248;BME280;55809;46.618;10.764;2023-04-02T07:33:13;92273.75;;;15.82;27.46
57248;BME280;55809;46.618;10.764;2023-04-02T07:35:42;92283.75;;;15.85;27.06
57248;BME280;55809;46.618;10.764;2023-04-02T07:38:15;92278.16;;;15.89;26.88
57248;BME280;55809;46.618;10.764;2023-04-02T07:41:06;92296.59;;;16.16;26.94
57248;BME280;55809;46.618;10.764;2023-04-02T07:43:34;92268.00;;;16.21;25.91
57248;BME280;55809;46.618;10.764;2023-04-02T07:46:03;92292.75;;;16.54;26.46
57248;BME280;55809;46.618;10.764;2023-04-02T07:48:30;92297.44;;;16.62;26.46
57248;BME280;55809;46.618;10.764;2023-04-02T07:50:57;92286.44;;;16.75;25.71
57248;BME280;55809;46.618;10.764;2023-04-02T07:56:02;92194.81;;;16.59;24.84
57248;BME280;55809;46.618;10.764;2023-04-02T07:58:53;92252.84;;;16.78;24.45
57248;BME280;55809;46.618;10.764;2023-04-02T08:01:34;92216.16;;;16.61;24.86
57248;BME280;55809;46.618;10.764;2023-04-02T08:04:04;92211.00;;;16.45;24.64
57248;BME280;55809;46.618;10.764;2023-04-02T08:06:40;92292.50;;;17.16;25.13
57248;BME280;55809;46.618;10.764;2023-04-02T08:09:22;92255.53;;;16.87;24.06
57248;BME280;55809;46.618;10.764;2023-04-02T08:12:04;92208.72;;;16.34;24.54
57248;BME280;55809;46.618;10.764;2023-04-02T08:15:03;92274.94;;;16.90;24.37
57248;BME280;55809;46.618;10.764;2023-04-02T08:18:01;92217.03;;;16.21;24.42
57248;BME280;55809;46.618;10.764;2023-04-02T08:20:45;92224.03;;;16.68;24.00
57248;BME280;55809;46.618;10.764;2023-04-02T08:23:24;92216.03;;;16.83;23.75
57248;BME280;55809;46.618;10.764;2023-04-02T08:26:03;92275.50;;;17.40;23.28
57248;BME280;55809;46.618;10.764;2023-04-02T08:28:40;92227.09;;;16.79;23.56
57248;BME280;55809;46.618;10.764;2023-04-02T08:31:13;92305.81;;;17.51;23.35
57248;BME280;55809;46.618;10.764;2023-04-02T08:33:57;92222.50;;;17.13;23.11
57248;BME280;55809;46.618;10.764;2023-04-02T08:36:45;92259.75;;;17.34;23.64
57248;BME280;55809;46.618;10.764;2023-04-02T08:39:23;92234.63;;;17.21;22.95
57248;BME280;55809;46.618;10.764;2023-04-02T08:42:19;92277.63;;;17.35;23.20
57248;BME280;55809;46.618;10.764;2023-04-02T08:45:02;92240.34;;;17.42;22.77
57248;BME280;55809;46.618;10.764;2023-04-02T08:47:58;92259.38;;;17.78;23.04
57248;BME280;55809;46.618;10.764;2023-04-02T08:50:42;64767.38;;;-145.41;100.00
57248;BME280;55809;46.618;10.764;2023-04-02T08:53:21;64767.38;;;-145.41;100.00
57248;BME280;55809;46.618;10.764;2023-04-02T08:56:13;64767.38;;;-145.41;100.00
57248;BME280;55809;46.618;10.764;2023-04-02T08:59:00;64767.38;;;-145.41;100.00
57248;BME280;55809;46.618;10.764;2023-04-02T09:01:43;64767.38;;;-145.41;100.00
57248;BME280;55809;46.618;10.764;2023-04-02T09:04:45;64767.38;;;-145.41;100.00
57248;BME280;55809;46.618;10.764;2023-04-02T09:07:49;64767.38;;;-145.41;100.00
57248;BME280;55809;46.618;10.764;2023-04-02T09:10:34;64767.38;;;-145.41;100.00
57248;BME280;55809;46.618;10.764;2023-04-02T09:13:26;64767.38;;;-145.41;100.00
57248;BME280;55809;46.618;10.764;2023-04-02T09:16:09;64767.38;;;-145.41;100.00
57248;BME280;55809;46.618;10.764;2023-04-02T09:19:16;64767.38;;;-145.41;100.00
57248;BME280;55809;46.618;10.764;2023-04-02T09:25:10;64767.38;;;-145.41;100.00
57248;BME280;55809;46.618;10.764;2023-04-02T09:27:39;64767.38;;;-145.41;100.00
57248;BME280;55809;46.618;10.764;2023-04-02T09:30:26;64767.38;;;-145.41;100.00
57248;BME280;55809;46.618;10.764;2023-04-02T09:33:10;64767.38;;;-145.41;100.00
57248;BME280;55809;46.618;10.764;2023-04-02T09:36:06;64767.38;;;-145.41;100.00
57248;BME280;55809;46.618;10.764;2023-04-02T09:39:25;64767.38;;;-145.41;100.00
57248;BME280;55809;46.618;10.764;2023-04-02T09:42:37;64767.38;;;-145.41;100.00
57248;BME280;55809;46.618;10.764;2023-04-02T09:45:42;64767.38;;;-145.41;100.00
57248;BME280;55809;46.618;10.764;2023-04-02T09:48:54;64767.38;;;-145.41;100.00
57248;BME280;55809;46.618;10.764;2023-04-02T09:51:39;64767.38;;;-145.41;100.00
57248;BME280;55809;46.618;10.764;2023-04-02T09:54:16;64767.38;;;-145.41;100.00
57248;BME280;55809;46.618;10.764;2023-04-02T09:57:05;64767.38;;;-145.41;100.00
57248;BME280;55809;46.618;10.764;2023-04-02T10:00:27;64767.38;;;-145.41;100.00
57248;BME280;55809;46.618;10.764;2023-04-02T10:03:27;64767.38;;;-145.41;100.00
57248;BME280;55809;46.618;10.764;2023-04-02T10:06:23;64767.38;;;-145.41;100.00
57248;BME280;55809;46.618;10.764;2023-04-02T10:09:27;64767.38;;;-145.41;100.00
57248;BME280;55809;46.618;10.764;2023-04-02T10:12:17;64767.38;;;-145.41;100.00
57248;BME280;55809;46.618;10.764;2023-04-02T10:15:20;64767.38;;;-145.41;100.00
57248;BME280;55809;46.618;10.764;2023-04-02T10:18:15;64767.38;;;-145.41;100.00
57248;BME280;55809;46.618;10.764;2023-04-02T10:21:01;64767.38;;;-145.41;100.00
57248;BME280;55809;46.618;10.764;2023-04-02T10:23:42;64767.38;;;-145.41;100.00
57248;BME280;55809;46.618;10.764;2023-04-02T10:26:30;64767.38;;;-145.41;100.00
57248;BME280;55809;46.618;10.764;2023-04-02T10:29:25;64767.38;;;-145.41;100.00
57248;BME280;55809;46.618;10.764;2023-04-02T10:32:15;92259.38;;;17.78;23.04
57248;BME280;55809;46.618;10.764;2023-04-02T10:35:00;92236.56;;;17.91;23.66
57248;BME280;55809;46.618;10.764;2023-04-02T10:41:27;92303.28;;;17.90;23.08
57248;BME280;55809;46.618;10.764;2023-04-02T10:44:45;92233.38;;;17.41;23.62
57248;BME280;55809;46.618;10.764;2023-04-02T10:47:48;92231.63;;;16.92;23.61
57248;BME280;55809;46.618;10.764;2023-04-02T10:50:46;92288.00;;;17.83;23.95
57248;BME280;55809;46.618;10.764;2023-04-02T10:53:40;92302.19;;;17.35;23.63
57248;BME280;55809;46.618;10.764;2023-04-02T10:56:34;92237.69;;;16.77;24.53
57248;BME280;55809;46.618;10.764;2023-04-02T10:59:33;92223.00;;;17.63;24.56
57248;BME280;55809;46.618;10.764;2023-04-02T11:02:32;92316.63;;;18.72;23.29
57248;BME280;55809;46.618;10.764;2023-04-02T11:08:39;92292.50;;;19.10;23.12
57248;BME280;55809;46.618;10.764;2023-04-02T11:11:30;92288.38;;;18.76;23.69
57248;BME280;55809;46.618;10.764;2023-04-02T11:14:14;92311.22;;;18.54;23.17
57248;BME280;55809;46.618;10.764;2023-04-02T11:16:58;92229.88;;;17.40;23.91
57248;BME280;55809;46.618;10.764;2023-04-02T11:19:43;92230.34;;;17.39;23.50
57248;BME280;55809;46.618;10.764;2023-04-02T11:29:15;92271.91;;;16.97;24.82
57248;BME280;55809;46.618;10.764;2023-04-02T11:32:33;92316.59;;;16.99;24.89
57248;BME280;55809;46.618;10.764;2023-04-02T11:35:35;92224.75;;;16.23;24.76
57248;BME280;55809;46.618;10.764;2023-04-02T11:38:55;92324.44;;;16.97;25.38
57248;BME280;55809;46.618;10.764;2023-04-02T11:42:05;92319.31;;;16.99;25.00
57248;BME280;55809;46.618;10.764;2023-04-02T11:51:48;92292.50;;;17.25;24.67
57248;BME280;55809;46.618;10.764;2023-04-02T11:54:22;92231.16;;;16.75;24.57
57248;BME280;55809;46.618;10.764;2023-04-02T11:57:17;92308.13;;;17.25;24.32
57248;BME280;55809;46.618;10.764;2023-04-02T12:00:22;92286.44;;;16.75;25.33
57248;BME280;55809;46.618;10.764;2023-04-02T12:07:03;92233.19;;;16.15;25.88
57248;BME280;55809;46.618;10.764;2023-04-02T12:09:46;92237.59;;;16.13;25.93
57248;BME280;55809;46.618;10.764;2023-04-02T12:12:28;92231.97;;;16.07;25.59
57248;BME280;55809;46.618;10.764;2023-04-02T12:15:43;92283.88;;;16.22;26.17
57248;BME280;55809;46.618;10.764;2023-04-02T12:21:14;92246.47;;;15.64;26.16
57248;BME280;55809;46.618;10.764;2023-04-02T12:27:26;92230.22;;;15.51;25.58
57248;BME280;55809;46.618;10.764;2023-04-02T12:30:18;92243.63;;;15.67;26.09
57248;BME280;55809;46.618;10.764;2023-04-02T12:39:34;92241.66;;;15.37;26.69
57248;BME280;55809;46.618;10.764;2023-04-02T12:42:31;92280.97;;;15.67;26.48
57248;BME280;55809;46.618;10.764;2023-04-02T12:45:26;92211.38;;;15.25;26.46
57248;BME280;55809;46.618;10.764;2023-04-02T12:48:11;92236.84;;;15.41;26.04
57248;BME280;55809;46.618;10.764;2023-04-02T12:50:57;92269.06;;;15.74;26.78
57248;BME280;55809;46.618;10.764;2023-04-02T12:53:40;92266.69;;;15.63;26.11
57248;BME280;55809;46.618;10.764;2023-04-02T12:56:18;92250.78;;;15.52;26.31
57248;BME280;55809;46.618;10.764;2023-04-02T12:59:05;92247.97;;;15.65;26.50
57248;BME280;55809;46.618;10.764;2023-04-02T13:01:56;92230.13;;;15.33;26.17
57248;BME280;55809;46.618;10.764;2023-04-02T13:04:26;92278.34;;;15.63;26.40
57248;BME280;55809;46.618;10.764;2023-04-02T13:06:58;92268.78;;;15.59;26.75
57248;BME280;55809;46.618;10.764;2023-04-02T13:09:38;92225.34;;;15.37;26.95
57248;BME280;55809;46.618;10.764;2023-04-02T13:12:32;92263.75;;;15.70;26.67
57248;BME280;55809;46.618;10.764;2023-04-02T13:15:25;92219.41;;;15.60;26.91
57248;BME280;55809;46.618;10.764;2023-04-02T13:18:15;92278.09;;;16.11;27.16
57248;BME280;55809;46.618;10.764;2023-04-02T13:20:57;92308.00;;;16.42;26.64
57248;BME280;55809;46.618;10.764;2023-04-02T13:23:41;92236.88;;;15.81;26.25
57248;BME280;55809;46.618;10.764;2023-04-02T13:26:18;92225.94;;;15.72;26.06
57248;BME280;55809;46.618;10.764;2023-04-02T13:29:22;92226.63;;;15.54;26.24
57248;BME280;55809;46.618;10.764;2023-04-02T13:32:04;92228.53;;;15.44;26.69
57248;BME280;55809;46.618;10.764;2023-04-02T13:34:43;92297.63;;;15.78;26.70
57248;BME280;55809;46.618;10.764;2023-04-02T13:37:28;92234.13;;;15.19;27.03
57248;BME280;55809;46.618;10.764;2023-04-02T13:40:14;92237.25;;;15.08;27.17
57248;BME280;55809;46.618;10.764;2023-04-02T13:42:49;92334.41;;;15.61;26.39
57248;BME280;55809;46.618;10.764;2023-04-02T13:45:22;92338.22;;;15.41;26.46
57248;BME280;55809;46.618;10.764;2023-04-02T13:47:59;92313.94;;;15.25;27.19
57248;BME280;55809;46.618;10.764;2023-04-02T13:50:31;92322.34;;;15.18;27.41
57248;BME280;55809;46.618;10.764;2023-04-02T13:53:03;92329.88;;;15.14;27.16
57248;BME280;55809;46.618;10.764;2023-04-02T13:58:33;92296.38;;;14.82;26.95
57248;BME280;55809;46.618;10.764;2023-04-02T14:01:07;92329.38;;;14.93;27.43
57248;BME280;55809;46.618;10.764;2023-04-02T14:03:40;92337.97;;;14.92;27.55
57248;BME280;55809;46.618;10.764;2023-04-02T14:06:18;92337.66;;;14.90;28.13
57248;BME280;55809;46.618;10.764;2023-04-02T14:08:59;92337.66;;;14.90;28.31
57248;BME280;55809;46.618;10.764;2023-04-02T14:11:41;92339.63;;;14.89;27.59
57248;BME280;55809;46.618;10.764;2023-04-02T14:14:39;92336.50;;;14.78;27.94
57248;BME280;55809;46.618;10.764;2023-04-02T14:17:33;92344.56;;;14.69;28.52
57248;BME280;55809;46.618;10.764;2023-04-02T14:20:34;92345.84;;;14.77;28.49
57248;BME280;55809;46.618;10.764;2023-04-02T14:23:35;92345.66;;;14.71;28.06
57248;BME280;55809;46.618;10.764;2023-04-02T14:26:15;92345.44;;;14.66;27.66
57248;BME280;55809;46.618;10.764;2023-04-02T14:28:53;92355.97;;;14.64;27.81
57248;BME280;55809;46.618;10.764;2023-04-02T14:31:32;92349.03;;;14.63;29.19
57248;BME280;55809;46.618;10.764;2023-04-02T14:34:15;92352.28;;;14.58;28.41
57248;BME280;55809;46.618;10.764;2023-04-02T14:37:07;92345.78;;;14.55;28.76
57248;BME280;55809;46.618;10.764;2023-04-02T14:39:51;92358.38;;;14.62;28.17
57248;BME280;55809;46.618;10.764;2023-04-02T14:42:45;92334.06;;;14.45;28.85
57248;BME280;55809;46.618;10.764;2023-04-02T14:45:46;92354.56;;;14.46;28.50
57248;BME280;55809;46.618;10.764;2023-04-02T14:49:03;92359.47;;;14.39;30.24